Time;durP1;ratioP1;P1;durP2;ratioP2;P2;SDS_P1;SDS_P2;PMS_P1;PMS_P2;Temp;Humidity;BMP_temperature;BMP_pressure;BME280_temperature;BME280_humidity;BME280_pressure;Samples;Min_cycle;Max_cycle;Signal;HPM_P1;HPM_P2
2022/09/01 00:01:57;;;;;;;1.33;1.23;;;;;;;;;;2513911;55;21037;-79
2022/09/01 00:04:26;;;;;;;1.37;1.27;;;;;;;;;;2514962;55;21568;-79
2022/09/01 00:06:53;;;;;;;1.10;1.00;;;;;;;;;;2514309;55;21645;-79
2022/09/01 00:09:21;;;;;;;1.35;1.10;;;;;;;;;;2281549;59;21131;-80
2022/09/01 00:11:49;;;;;;;1.37;1.20;;;;;;;;;;2281622;59;21076;-79
2022/09/01 00:14:17;;;;;;;1.80;1.40;;;;;;;;;;2514410;55;21565;-79
2022/09/01 00:16:44;;;;;;;2.22;1.10;;;;;;;;;;2514387;55;21121;-79
2022/09/01 00:19:11;;;;;;;2.75;1.30;;;;;;;;;;2282197;59;21131;-79
2022/09/01 00:21:39;;;;;;;1.42;1.20;;;;;;;;;;2281518;59;21561;-79
2022/09/01 00:24:07;;;;;;;2.17;1.35;;;;;;;;;;2514704;55;21089;-79
2022/09/01 00:26:34;;;;;;;1.45;1.30;;;;;;;;;;2513409;55;21132;-79
2022/09/01 00:29:01;;;;;;;1.10;1.00;;;;;;;;;;2282035;59;21089;-79
2022/09/01 00:31:28;;;;;;;2.75;1.20;;;;;;;;;;2281139;59;21105;-79
2022/09/01 00:33:56;;;;;;;1.90;1.30;;;;;;;;;;2281316;59;21099;-79
2022/09/01 00:36:23;;;;;;;1.60;1.48;;;;;;;;;;2513951;55;21076;-79
2022/09/01 00:38:50;;;;;;;1.20;1.10;;;;;;;;;;2281309;59;21079;-79
2022/09/01 00:41:18;;;;;;;3.60;1.30;;;;;;;;;;2514539;55;21633;-79
2022/09/01 00:43:47;;;;;;;1.60;1.20;;;;;;;;;;2281234;59;21156;-79
2022/09/01 00:46:15;;;;;;;1.80;1.30;;;;;;;;;;2281487;59;21052;-79
2022/09/01 00:48:42;;;;;;;1.90;1.40;;;;;;;;;;2281558;59;21105;-79
2022/09/01 00:51:10;;;;;;;1.80;1.40;;;;;;;;;;2514962;55;21045;-79
2022/09/01 00:53:38;;;;;;;2.20;1.52;;;;;;;;;;2281984;59;21081;-79
2022/09/01 00:56:06;;;;;;;1.70;1.25;;;;;;;;;;2280752;59;21057;-79
2022/09/01 00:58:34;;;;;;;1.77;1.10;;;;;;;;;;2514073;55;21359;-79
2022/09/01 01:01:01;;;;;;;1.95;1.17;;;;;;;;;;2280938;59;21049;-79
2022/09/01 01:03:29;;;;;;;1.02;0.93;;;;;;;;;;2281702;59;21053;-79
2022/09/01 01:05:58;;;;;;;1.98;1.12;;;;;;;;;;2514130;52;21124;-78
2022/09/01 01:08:32;;;;;;;1.23;1.12;;;;;;;;;;2580684;53;21209;-79
2022/09/01 01:11:00;;;;;;;1.65;1.27;;;;;;;;;;2580057;53;21118;-79
2022/09/01 01:13:30;;;;;;;2.67;1.42;;;;;;;;;;2579660;53;21065;-79
2022/09/01 01:15:58;;;;;;;1.20;1.10;;;;;;;;;;2575669;53;21055;-78
2022/09/01 01:18:25;;;;;;;1.45;1.15;;;;;;;;;;2308813;58;21145;-79
2022/09/01 01:23:47;;;;;;;1.77;1.20;;;;;;;;;;2498809;54;21162;-79
2022/09/01 01:26:14;;;;;;;1.50;1.02;;;;;;;;;;2308018;58;21748;-79
2022/09/01 01:28:43;;;;;;;1.60;1.27;;;;;;;;;;2308528;58;21053;-79
2022/09/01 01:31:11;;;;;;;4.05;1.20;;;;;;;;;;2547718;54;21058;-79
2022/09/01 01:33:40;;;;;;;1.95;1.10;;;;;;;;;;2307820;58;21550;-79
2022/09/01 01:36:11;;;;;;;1.83;1.30;;;;;;;;;;2308345;58;21067;-79
2022/09/01 01:38:41;;;;;;;1.40;1.00;;;;;;;;;;2548077;54;21630;-79
2022/09/01 01:41:08;;;;;;;1.83;1.30;;;;;;;;;;2308644;58;21073;-79
2022/09/01 01:43:36;;;;;;;2.53;1.12;;;;;;;;;;2308821;58;21132;-79
2022/09/01 01:46:04;;;;;;;1.12;0.95;;;;;;;;;;2547182;53;21069;-78
2022/09/01 01:48:33;;;;;;;1.20;1.10;;;;;;;;;;2547076;54;21065;-78
2022/09/01 01:51:01;;;;;;;2.12;1.35;;;;;;;;;;2309188;58;21148;-78
2022/09/01 01:53:28;;;;;;;1.75;1.45;;;;;;;;;;2547534;54;21070;-78
2022/09/01 01:55:55;;;;;;;1.95;1.58;;;;;;;;;;2308473;58;21133;-80
2022/09/01 01:58:24;;;;;;;1.87;1.30;;;;;;;;;;2309188;58;21041;-79
2022/09/01 02:00:53;;;;;;;2.42;1.50;;;;;;;;;;2309312;58;21058;-79
2022/09/01 02:03:21;;;;;;;1.85;1.40;;;;;;;;;;2547812;54;21065;-79
2022/09/01 02:05:49;;;;;;;1.55;1.25;;;;;;;;;;2308460;58;21061;-79
2022/09/01 02:08:21;;;;;;;1.52;1.12;;;;;;;;;;2308040;58;21061;-78
2022/09/01 02:10:49;;;;;;;1.55;1.20;;;;;;;;;;2549130;54;21088;-80
2022/09/01 02:13:18;;;;;;;1.30;1.08;;;;;;;;;;2309844;58;21140;-80
2022/09/01 02:15:46;;;;;;;1.02;0.93;;;;;;;;;;2309310;58;21069;-78
2022/09/01 02:18:15;;;;;;;1.15;1.05;;;;;;;;;;2309945;58;21081;-79
2022/09/01 02:20:42;;;;;;;1.10;1.00;;;;;;;;;;2549308;54;21117;-79
2022/09/01 02:23:10;;;;;;;1.48;1.35;;;;;;;;;;2309549;58;21140;-80
2022/09/01 02:25:37;;;;;;;1.40;1.25;;;;;;;;;;2548285;54;21061;-81
2022/09/01 02:28:08;;;;;;;2.30;1.10;;;;;;;;;;2548733;53;21069;-79
2022/09/01 02:30:36;;;;;;;1.50;1.20;;;;;;;;;;2548983;54;22169;-80
2022/09/01 02:33:04;;;;;;;2.03;1.15;;;;;;;;;;2310056;58;21077;-79
2022/09/01 02:35:33;;;;;;;1.25;1.08;;;;;;;;;;2548368;54;21045;-79
2022/09/01 02:38:00;;;;;;;1.10;1.00;;;;;;;;;;2308241;58;21132;-81
2022/09/01 02:40:29;;;;;;;2.45;1.33;;;;;;;;;;2309668;58;21046;-80
2022/09/01 02:42:57;;;;;;;3.28;1.33;;;;;;;;;;2548148;54;21057;-78
2022/09/01 02:45:24;;;;;;;2.00;1.40;;;;;;;;;;2548195;54;21084;-80
2022/09/01 02:47:52;;;;;;;1.77;1.23;;;;;;;;;;2309873;58;21137;-80
2022/09/01 02:50:21;;;;;;;2.12;1.80;;;;;;;;;;2309739;58;21073;-80
2022/09/01 02:52:48;;;;;;;1.83;1.45;;;;;;;;;;2548998;54;21128;-79
2022/09/01 02:55:20;;;;;;;2.67;1.70;;;;;;;;;;2547801;54;21649;-80
2022/09/01 02:57:48;;;;;;;1.52;1.42;;;;;;;;;;2549113;54;21304;-78
2022/09/01 03:00:21;;;;;;;1.83;1.40;;;;;;;;;;2548607;54;21629;-80
2022/09/01 03:02:50;;;;;;;1.83;1.27;;;;;;;;;;2310081;58;21133;-79
2022/09/01 03:05:24;;;;;;;2.47;1.55;;;;;;;;;;2309370;58;21152;-79
2022/09/01 03:07:55;;;;;;;2.03;1.70;;;;;;;;;;2548887;54;21105;-80
2022/09/01 03:10:25;;;;;;;2.90;1.45;;;;;;;;;;2549210;54;21065;-80
2022/09/01 03:12:53;;;;;;;1.50;1.40;;;;;;;;;;2310100;58;21092;-79
2022/09/01 03:15:22;;;;;;;1.37;1.27;;;;;;;;;;2309376;58;21129;-81
2022/09/01 03:17:49;;;;;;;1.50;1.40;;;;;;;;;;2309987;58;21070;-79
2022/09/01 03:20:18;;;;;;;1.40;1.27;;;;;;;;;;2548277;54;21066;-81
2022/09/01 03:22:46;;;;;;;1.40;1.30;;;;;;;;;;2309766;58;21076;-79
2022/09/01 03:25:13;;;;;;;1.50;1.40;;;;;;;;;;2309194;58;21081;-80
2022/09/01 03:27:40;;;;;;;2.53;1.58;;;;;;;;;;2308706;58;21665;-78
2022/09/01 03:30:08;;;;;;;2.28;1.40;;;;;;;;;;2548025;54;21057;-81
2022/09/01 03:32:35;;;;;;;2.53;1.48;;;;;;;;;;2549117;54;21121;-80
2022/09/01 03:35:02;;;;;;;1.98;1.40;;;;;;;;;;2308739;58;21061;-79
2022/09/01 03:37:29;;;;;;;2.25;1.33;;;;;;;;;;2308881;58;21613;-79
2022/09/01 03:39:57;;;;;;;1.30;1.20;;;;;;;;;;2309010;58;21085;-80
2022/09/01 03:42:28;;;;;;;2.05;1.27;;;;;;;;;;2309866;58;21105;-80
2022/09/01 03:44:56;;;;;;;1.73;1.40;;;;;;;;;;2549097;54;21137;-79
2022/09/01 03:47:23;;;;;;;1.50;1.35;;;;;;;;;;2309128;58;21061;-82
2022/09/01 03:49:50;;;;;;;1.58;1.42;;;;;;;;;;2308690;58;21133;-79
2022/09/01 03:52:18;;;;;;;1.50;1.40;;;;;;;;;;2309416;58;21053;-80
2022/09/01 03:54:44;;;;;;;1.30;1.20;;;;;;;;;;2309758;58;21077;-80
2022/09/01 03:57:11;;;;;;;1.40;1.30;;;;;;;;;;2308720;58;21121;-81
2022/09/01 03:59:42;;;;;;;1.05;0.98;;;;;;;;;;2548866;54;21189;-80
2022/09/01 04:02:10;;;;;;;2.33;1.25;;;;;;;;;;2309803;58;21136;-80
2022/09/01 04:04:37;;;;;;;1.50;1.40;;;;;;;;;;2307789;58;21057;-77
2022/09/01 04:07:04;;;;;;;1.50;1.40;;;;;;;;;;2307919;58;21065;-80
2022/09/01 04:09:33;;;;;;;1.70;1.55;;;;;;;;;;2309902;58;21111;-81
2022/09/01 04:12:00;;;;;;;1.40;1.30;;;;;;;;;;2308712;58;21069;-81
2022/09/01 04:14:27;;;;;;;1.20;1.12;;;;;;;;;;2307147;58;21460;-81
2022/09/01 04:19:41;;;;;;;1.50;1.40;;;;;;;;;;2308108;58;21048;-80
2022/09/01 04:22:12;;;;;;;1.52;1.42;;;;;;;;;;2308678;58;21061;-80
2022/09/01 04:24:41;;;;;;;1.80;1.58;;;;;;;;;;2547584;54;21076;-80
2022/09/01 04:27:08;;;;;;;1.52;1.33;;;;;;;;;;2308325;58;21312;-81
2022/09/01 04:29:35;;;;;;;1.98;1.25;;;;;;;;;;2548078;54;21557;-82
2022/09/01 04:32:05;;;;;;;1.95;1.62;;;;;;;;;;2546825;54;21549;-82
2022/09/01 04:34:36;;;;;;;1.60;1.50;;;;;;;;;;2308572;58;21567;-82
2022/09/01 04:37:04;;;;;;;2.83;1.48;;;;;;;;;;2307439;58;21128;-81
2022/09/01 04:39:31;;;;;;;2.05;1.55;;;;;;;;;;2308298;58;21744;-80
2022/09/01 04:41:58;;;;;;;1.75;1.50;;;;;;;;;;2308322;58;21069;-78
2022/09/01 04:44:26;;;;;;;4.82;2.10;;;;;;;;;;2308909;58;21061;-76
2022/09/01 04:46:54;;;;;;;2.25;2.03;;;;;;;;;;2547188;53;21148;-77
2022/09/01 04:49:25;;;;;;;1.77;1.60;;;;;;;;;;2307283;58;21184;-77
2022/09/01 04:51:53;;;;;;;3.10;1.87;;;;;;;;;;2308532;58;21140;-77
2022/09/01 04:54:20;;;;;;;2.78;1.98;;;;;;;;;;2307989;58;21550;-77
2022/09/01 04:56:49;;;;;;;2.15;1.67;;;;;;;;;;2307795;58;21057;-78
2022/09/01 04:59:19;;;;;;;2.85;1.77;;;;;;;;;;2308998;58;21049;-76
2022/09/01 05:01:48;;;;;;;1.60;1.50;;;;;;;;;;2309347;58;21069;-78
2022/09/01 05:04:16;;;;;;;1.80;1.50;;;;;;;;;;2309414;58;21137;-77
2022/09/01 05:06:44;;;;;;;3.72;2.05;;;;;;;;;;2308047;58;21148;-78
2022/09/01 05:09:12;;;;;;;2.10;1.90;;;;;;;;;;2548021;54;21081;-79
2022/09/01 05:11:44;;;;;;;2.42;1.50;;;;;;;;;;2307669;58;21633;-77
2022/09/01 05:14:11;;;;;;;1.77;1.50;;;;;;;;;;2308892;58;21042;-77
2022/09/01 05:16:40;;;;;;;3.00;1.92;;;;;;;;;;2547866;53;21137;-77
2022/09/01 05:19:09;;;;;;;2.72;1.92;;;;;;;;;;2309160;58;21152;-76
2022/09/01 05:21:39;;;;;;;2.22;1.85;;;;;;;;;;2309010;58;21057;-76
2022/09/01 05:24:06;;;;;;;1.75;1.58;;;;;;;;;;2309098;58;21057;-78
2022/09/01 05:26:33;;;;;;;4.47;1.83;;;;;;;;;;2547934;53;21078;-80
2022/09/01 05:29:01;;;;;;;2.92;2.00;;;;;;;;;;2548245;54;21053;-79
2022/09/01 05:31:36;;;;;;;2.55;2.00;;;;;;;;;;2308412;58;21570;-78
2022/09/01 05:34:03;;;;;;;2.37;2.00;;;;;;;;;;2547015;54;21042;-77
2022/09/01 05:36:32;;;;;;;3.62;2.22;;;;;;;;;;2308770;58;21046;-76
2022/09/01 05:39:00;;;;;;;3.75;2.03;;;;;;;;;;2308613;58;21129;-77
2022/09/01 05:41:28;;;;;;;3.05;2.35;;;;;;;;;;2308900;58;21109;-79
2022/09/01 05:43:55;;;;;;;3.05;2.25;;;;;;;;;;2309635;58;21068;-82
2022/09/01 05:46:25;;;;;;;3.45;2.30;;;;;;;;;;2308449;58;21069;-80
2022/09/01 05:48:53;;;;;;;4.03;2.42;;;;;;;;;;2549114;54;21241;-79
2022/09/01 05:51:22;;;;;;;2.78;1.90;;;;;;;;;;2309590;58;21212;-81
2022/09/01 05:53:50;;;;;;;3.75;2.20;;;;;;;;;;2548832;53;21141;-81
2022/09/01 05:56:18;;;;;;;3.83;2.70;;;;;;;;;;2309433;58;21077;-82
2022/09/01 05:58:47;;;;;;;2.37;1.67;;;;;;;;;;2309499;58;21125;-82
2022/09/01 06:01:20;;;;;;;2.15;1.95;;;;;;;;;;2548337;54;21117;-81
2022/09/01 06:03:49;;;;;;;6.00;2.65;;;;;;;;;;2309736;58;21070;-81
2022/09/01 06:06:16;;;;;;;6.22;2.33;;;;;;;;;;2548204;53;21133;-81
2022/09/01 06:08:44;;;;;;;8.93;3.05;;;;;;;;;;2309929;58;21061;-82
2022/09/01 06:11:12;;;;;;;7.37;3.35;;;;;;;;;;2548850;54;21069;-79
2022/09/01 06:13:40;;;;;;;5.97;3.58;;;;;;;;;;2309764;58;21058;-79
2022/09/01 06:16:08;;;;;;;6.45;4.05;;;;;;;;;;2547811;54;21058;-79
2022/09/01 06:18:36;;;;;;;3.45;2.80;;;;;;;;;;2309840;58;21144;-79
2022/09/01 06:21:03;;;;;;;7.43;3.40;;;;;;;;;;2548693;54;21057;-80
2022/09/01 06:23:30;;;;;;;8.30;3.45;;;;;;;;;;2309715;58;21156;-79
2022/09/01 06:25:58;;;;;;;4.00;2.45;;;;;;;;;;2548385;53;21065;-80
2022/09/01 06:28:28;;;;;;;3.30;2.55;;;;;;;;;;2548611;54;21126;-80
2022/09/01 06:30:56;;;;;;;3.90;2.80;;;;;;;;;;2309417;58;21069;-80
2022/09/01 06:33:24;;;;;;;13.52;3.67;;;;;;;;;;2548948;54;21101;-79
2022/09/01 06:35:54;;;;;;;6.87;3.40;;;;;;;;;;2309563;58;21141;-80
2022/09/01 06:38:21;;;;;;;3.65;2.47;;;;;;;;;;2547809;54;21086;-80
2022/09/01 06:40:48;;;;;;;4.32;3.37;;;;;;;;;;2309940;58;21125;-80
2022/09/01 06:43:15;;;;;;;37.85;7.95;;;;;;;;;;2309190;58;21125;-79
2022/09/01 06:45:45;;;;;;;75.30;10.65;;;;;;;;;;2309614;58;21076;-79
2022/09/01 06:48:15;;;;;;;1092.85;151.37;;;;;;;;;;2309956;58;21149;-79
2022/09/01 06:50:42;;;;;;;459.15;59.35;;;;;;;;;;2549594;54;21167;-79
2022/09/01 06:53:09;;;;;;;964.63;150.62;;;;;;;;;;2310203;58;21089;-79
2022/09/01 06:55:37;;;;;;;1085.13;176.77;;;;;;;;;;2309583;58;21082;-79
2022/09/01 06:58:05;;;;;;;764.00;103.25;;;;;;;;;;2309373;58;21105;-80
2022/09/01 07:00:32;;;;;;;226.35;25.48;;;;;;;;;;2309154;58;21038;-80
2022/09/01 07:02:59;;;;;;;466.05;61.53;;;;;;;;;;2309558;58;21204;-79
2022/09/01 07:05:26;;;;;;;227.38;26.48;;;;;;;;;;2308813;58;21054;-79
2022/09/01 07:07:54;;;;;;;302.50;41.80;;;;;;;;;;2375378;53;73656;-77
2022/09/01 07:10:21;;;;;;;435.85;55.55;;;;;;;;;;2275402;59;21026;-76
2022/09/01 07:12:48;;;;;;;193.87;25.77;;;;;;;;;;2506585;55;21628;-77
2022/09/01 07:15:16;;;;;;;189.02;23.08;;;;;;;;;;2273584;59;21038;-78
2022/09/01 07:17:45;;;;;;;33.28;5.28;;;;;;;;;;2273722;59;21114;-76
2022/09/01 07:20:14;;;;;;;441.90;59.47;;;;;;;;;;2273183;59;21125;-78
2022/09/01 07:22:41;;;;;;;257.25;30.48;;;;;;;;;;2273880;59;21078;-76
2022/09/01 07:25:11;;;;;;;383.70;57.70;;;;;;;;;;2504986;55;21046;-77
2022/09/01 07:27:38;;;;;;;340.85;46.65;;;;;;;;;;2503678;55;21023;-75
2022/09/01 07:30:08;;;;;;;195.82;30.23;;;;;;;;;;2273106;59;21054;-76
2022/09/01 07:32:35;;;;;;;83.30;15.43;;;;;;;;;;2273256;59;21121;-76
2022/09/01 07:35:07;;;;;;;76.60;8.52;;;;;;;;;;2505307;55;21042;-76
2022/09/01 07:37:36;;;;;;;94.15;13.73;;;;;;;;;;2273545;59;21666;-76
2022/09/01 07:40:05;;;;;;;44.53;5.80;;;;;;;;;;2505153;55;21118;-76
2022/09/01 07:42:32;;;;;;;72.53;9.13;;;;;;;;;;2505109;55;21117;-76
2022/09/01 07:44:59;;;;;;;124.97;19.40;;;;;;;;;;2504681;55;21046;-76
2022/09/01 07:47:28;;;;;;;322.17;43.42;;;;;;;;;;2504779;55;21094;-77
2022/09/01 07:49:55;;;;;;;158.65;23.67;;;;;;;;;;2505367;55;21046;-76
2022/09/01 07:52:22;;;;;;;110.10;16.10;;;;;;;;;;2273594;59;21046;-76
2022/09/01 07:54:49;;;;;;;53.42;7.90;;;;;;;;;;2273798;59;21657;-76
2022/09/01 07:57:17;;;;;;;58.30;7.50;;;;;;;;;;2273536;59;21082;-76
2022/09/01 07:59:44;;;;;;;34.47;5.72;;;;;;;;;;2505266;55;21153;-76
2022/09/01 08:02:11;;;;;;;7.93;2.00;;;;;;;;;;2273211;59;21099;-76
2022/09/01 08:04:39;;;;;;;12.48;2.87;;;;;;;;;;2504869;55;21042;-76
2022/09/01 08:07:06;;;;;;;12.90;2.90;;;;;;;;;;2504845;55;21098;-75
2022/09/01 08:09:35;;;;;;;10.15;1.87;;;;;;;;;;2274008;59;21611;-76
2022/09/01 08:12:04;;;;;;;5.78;1.77;;;;;;;;;;2273271;59;21090;-75
2022/09/01 08:14:31;;;;;;;4.87;1.37;;;;;;;;;;2273962;59;21597;-76
2022/09/01 08:16:58;;;;;;;6.90;1.37;;;;;;;;;;2273494;59;21058;-76
2022/09/01 08:19:25;;;;;;;7.97;2.17;;;;;;;;;;2273246;59;21065;-77
2022/09/01 08:21:52;;;;;;;5.68;1.52;;;;;;;;;;2273664;59;21122;-78
2022/09/01 08:24:19;;;;;;;17.67;2.90;;;;;;;;;;2273895;59;21617;-76
2022/09/01 08:26:47;;;;;;;6.45;1.40;;;;;;;;;;2504526;55;21117;-76
2022/09/01 08:29:14;;;;;;;119.50;18.45;;;;;;;;;;2504980;55;21272;-77
2022/09/01 08:31:41;;;;;;;48.92;7.93;;;;;;;;;;2274177;59;21058;-76
2022/09/01 08:34:11;;;;;;;17.50;2.62;;;;;;;;;;2273403;59;21069;-76
2022/09/01 08:36:38;;;;;;;45.25;5.45;;;;;;;;;;2273165;59;21040;-76
2022/09/01 08:39:05;;;;;;;118.97;14.32;;;;;;;;;;2273532;59;21133;-76
2022/09/01 08:41:43;;;;;;;33.30;4.87;;;;;;;;;;2273374;59;21071;-76
2022/09/01 08:44:16;;;;;;;18.83;2.35;;;;;;;;;;2274037;59;21038;-76
2022/09/01 08:46:43;;;;;;;14.05;2.30;;;;;;;;;;2504625;55;21038;-76
2022/09/01 08:49:15;;;;;;;7.78;1.17;;;;;;;;;;2273583;59;21034;-76
2022/09/01 08:51:44;;;;;;;2.33;1.02;;;;;;;;;;2274196;59;21042;-76
2022/09/01 08:54:16;;;;;;;3.60;1.15;;;;;;;;;;2504458;55;21552;-76
2022/09/01 08:56:44;;;;;;;1.50;0.87;;;;;;;;;;2504516;55;21022;-76
2022/09/01 08:59:12;;;;;;;4.28;0.95;;;;;;;;;;2273866;59;21122;-76
2022/09/01 09:01:44;;;;;;;1.90;0.60;;;;;;;;;;2505158;55;21031;-76
2022/09/01 09:04:19;;;;;;;2.42;1.05;;;;;;;;;;2505202;55;21050;-77
2022/09/01 09:06:53;;;;;;;2.10;1.05;;;;;;;;;;2273455;59;21042;-76
2022/09/01 09:09:21;;;;;;;2.12;0.73;;;;;;;;;;2273621;59;21030;-76
2022/09/01 09:11:58;;;;;;;2.65;0.80;;;;;;;;;;2273745;59;21050;-76
2022/09/01 09:14:31;;;;;;;2.40;1.00;;;;;;;;;;2273802;59;21082;-75
2022/09/01 09:16:58;;;;;;;3.62;1.05;;;;;;;;;;2504907;55;21054;-76
2022/09/01 09:19:28;;;;;;;2.53;0.93;;;;;;;;;;2273888;59;21062;-75
2022/09/01 09:21:57;;;;;;;4.10;1.20;;;;;;;;;;2273942;59;21098;-76
2022/09/01 09:24:27;;;;;;;7.93;1.23;;;;;;;;;;2273791;59;21118;-79
2022/09/01 09:26:55;;;;;;;4.50;1.00;;;;;;;;;;2504158;55;21059;-78
2022/09/01 09:29:23;;;;;;;1.95;0.80;;;;;;;;;;2273595;59;21050;-77
2022/09/01 09:32:01;;;;;;;3.42;0.70;;;;;;;;;;2505153;55;21102;-76
2022/09/01 09:34:32;;;;;;;1.48;0.73;;;;;;;;;;2505347;55;21034;-76
2022/09/01 09:37:01;;;;;;;0.88;0.60;;;;;;;;;;2273503;59;21121;-75
2022/09/01 09:39:29;;;;;;;1.10;0.82;;;;;;;;;;2273694;59;21588;-76
2022/09/01 09:42:07;;;;;;;2.58;0.80;;;;;;;;;;2504565;55;21030;-76
2022/09/01 09:44:40;;;;;;;1.50;1.15;;;;;;;;;;2273673;59;21126;-76
2022/09/01 09:47:09;;;;;;;4.12;0.70;;;;;;;;;;2504863;55;21035;-76
2022/09/01 09:49:36;;;;;;;3.50;0.90;;;;;;;;;;2272711;59;21047;-76
2022/09/01 09:52:22;;;;;;;1.70;0.85;;;;;;;;;;2273710;59;21086;-77
2022/09/01 09:55:01;;;;;;;2.45;0.80;;;;;;;;;;2505352;55;21090;-77
2022/09/01 09:57:29;;;;;;;0.85;0.50;;;;;;;;;;2273437;59;21092;-76
2022/09/01 09:59:58;;;;;;;2.75;0.95;;;;;;;;;;2505339;55;21050;-76
2022/09/01 10:02:30;;;;;;;1.55;0.60;;;;;;;;;;2273454;59;21090;-76
2022/09/01 10:04:58;;;;;;;0.95;0.62;;;;;;;;;;2272650;59;21067;-76
2022/09/01 10:07:27;;;;;;;2.80;0.57;;;;;;;;;;2273014;59;21126;-77
2022/09/01 10:09:55;;;;;;;0.88;0.60;;;;;;;;;;2503843;55;21055;-76
2022/09/01 10:12:23;;;;;;;0.80;0.57;;;;;;;;;;2273382;59;21517;-76
2022/09/01 10:14:52;;;;;;;0.88;0.70;;;;;;;;;;2505123;55;21128;-77
2022/09/01 10:17:23;;;;;;;0.98;0.50;;;;;;;;;;2273331;59;21600;-77
2022/09/01 10:19:53;;;;;;;20.12;3.25;;;;;;;;;;2274208;59;21126;-76
2022/09/01 10:22:20;;;;;;;39.83;7.93;;;;;;;;;;2504220;55;21106;-76
2022/09/01 10:24:47;;;;;;;27.33;3.70;;;;;;;;;;2274167;59;21046;-76
2022/09/01 10:27:18;;;;;;;5.37;1.00;;;;;;;;;;2273536;59;21614;-77
2022/09/01 10:29:47;;;;;;;0.98;0.73;;;;;;;;;;2505279;55;21182;-77
2022/09/01 10:32:16;;;;;;;1.40;0.88;;;;;;;;;;2505489;55;21094;-77
2022/09/01 10:34:43;;;;;;;1.48;0.60;;;;;;;;;;2505352;55;21118;-77
2022/09/01 10:37:11;;;;;;;2.37;0.93;;;;;;;;;;2272776;59;21054;-77
2022/09/01 10:40:09;;;;;;;2.87;0.70;;;;;;;;;;2273684;59;21038;-77
2022/09/01 10:42:36;;;;;;;1.52;0.60;;;;;;;;;;2505202;55;21030;-77
2022/09/01 10:45:04;;;;;;;1.48;0.70;;;;;;;;;;2505089;55;21034;-77
2022/09/01 10:47:32;;;;;;;1.08;0.68;;;;;;;;;;2505074;55;21050;-77
2022/09/01 10:50:01;;;;;;;0.93;0.60;;;;;;;;;;2273559;59;21612;-77
2022/09/01 10:52:46;;;;;;;0.77;0.70;;;;;;;;;;2273784;59;21095;-76
2022/09/01 10:55:15;;;;;;;1.30;0.40;;;;;;;;;;2273840;59;21042;-77
2022/09/01 10:57:46;;;;;;;1.75;0.68;;;;;;;;;;2273995;59;21173;-77
2022/09/01 11:00:33;;;;;;;0.50;0.50;;;;;;;;;;2274198;59;21109;-77
2022/09/01 11:03:22;;;;;;;2.30;0.70;;;;;;;;;;2273935;59;21026;-77
2022/09/01 11:06:02;;;;;;;0.57;0.40;;;;;;;;;;2273281;59;21564;-77
2022/09/01 11:08:42;;;;;;;1.55;0.80;;;;;;;;;;2273792;59;21050;-77
2022/09/01 11:11:14;;;;;;;0.47;0.47;;;;;;;;;;2273866;59;21133;-77
2022/09/01 11:13:47;;;;;;;0.50;0.45;;;;;;;;;;2274056;59;21054;-77
2022/09/01 11:16:28;;;;;;;2.20;0.73;;;;;;;;;;2505275;55;21050;-77
2022/09/01 11:18:58;;;;;;;0.70;0.60;;;;;;;;;;2273624;59;21054;-78
2022/09/01 11:21:26;;;;;;;0.62;0.47;;;;;;;;;;2273370;59;21109;-77
2022/09/01 11:24:12;;;;;;;1.17;0.60;;;;;;;;;;2273998;59;21090;-77
2022/09/01 11:26:47;;;;;;;1.12;0.80;;;;;;;;;;2273422;59;21102;-76
2022/09/01 11:29:34;;;;;;;1.33;0.77;;;;;;;;;;2504339;55;21172;-76
2022/09/01 11:32:01;;;;;;;1.08;0.60;;;;;;;;;;2504553;55;21620;-77
2022/09/01 11:34:28;;;;;;;0.60;0.60;;;;;;;;;;2274176;59;21026;-76
2022/09/01 11:36:59;;;;;;;0.88;0.60;;;;;;;;;;2273505;59;21114;-76
2022/09/01 11:39:31;;;;;;;1.40;0.70;;;;;;;;;;2273463;59;21142;-77
2022/09/01 11:42:00;;;;;;;1.00;0.77;;;;;;;;;;2274193;59;21529;-77
2022/09/01 11:44:30;;;;;;;0.65;0.62;;;;;;;;;;2504843;55;21600;-77
2022/09/01 11:46:59;;;;;;;0.40;0.40;;;;;;;;;;2504586;55;21049;-77
2022/09/01 11:49:28;;;;;;;3.53;1.27;;;;;;;;;;2274043;59;21635;-76
2022/09/01 11:51:56;;;;;;;5.37;0.80;;;;;;;;;;2273928;59;21575;-77
2022/09/01 11:54:24;;;;;;;1.50;0.77;;;;;;;;;;2273213;59;21118;-77
2022/09/01 11:56:51;;;;;;;2.28;0.50;;;;;;;;;;2273153;59;21046;-77
2022/09/01 12:02:07;;;;;;;2.35;0.55;;;;;;;;;;2354779;57;22065;-76
2022/09/01 12:04:36;;;;;;;0.70;0.68;;;;;;;;;;2347570;57;21104;-76
2022/09/01 12:07:05;;;;;;;2.90;1.10;;;;;;;;;;2347246;57;21120;-76
2022/09/01 12:09:37;;;;;;;2.05;0.93;;;;;;;;;;2594853;53;21018;-76
2022/09/01 12:12:05;;;;;;;0.70;0.60;;;;;;;;;;2347804;57;21615;-76
2022/09/01 12:14:32;;;;;;;0.90;0.80;;;;;;;;;;2347226;57;21061;-76
2022/09/01 12:17:01;;;;;;;3.60;0.93;;;;;;;;;;2346789;57;21676;-78
2022/09/01 12:19:30;;;;;;;2.08;0.80;;;;;;;;;;2347639;57;21042;-76
2022/09/01 12:22:00;;;;;;;0.75;0.60;;;;;;;;;;2346713;57;21057;-76
2022/09/01 12:24:28;;;;;;;1.35;0.80;;;;;;;;;;2347915;57;21042;-76
2022/09/01 12:26:57;;;;;;;1.10;0.88;;;;;;;;;;2346476;57;21513;-76
2022/09/01 12:29:25;;;;;;;0.90;0.70;;;;;;;;;;2346048;57;21053;-76
2022/09/01 12:31:53;;;;;;;1.27;0.85;;;;;;;;;;2346715;57;21670;-77
2022/09/01 12:34:28;;;;;;;1.02;0.75;;;;;;;;;;2347412;57;21038;-76
2022/09/01 12:37:09;;;;;;;2.90;0.75;;;;;;;;;;2593262;52;21097;-76
2022/09/01 12:39:37;;;;;;;3.55;0.80;;;;;;;;;;2593971;53;21643;-79
2022/09/01 12:42:06;;;;;;;1.67;0.70;;;;;;;;;;2347822;57;21516;-81
2022/09/01 12:44:35;;;;;;;2.10;0.68;;;;;;;;;;2346729;57;21066;-76
2022/09/01 12:47:03;;;;;;;1.17;0.70;;;;;;;;;;2346432;57;21050;-76
2022/09/01 12:49:39;;;;;;;0.55;0.55;;;;;;;;;;2594952;53;21113;-76
2022/09/01 12:52:06;;;;;;;0.68;0.50;;;;;;;;;;2347398;57;21496;-76
2022/09/01 12:54:33;;;;;;;0.98;0.70;;;;;;;;;;2595152;53;21063;-77
2022/09/01 12:57:00;;;;;;;0.80;0.70;;;;;;;;;;2347435;57;21041;-77
2022/09/01 12:59:28;;;;;;;0.75;0.62;;;;;;;;;;2347613;57;21516;-77
2022/09/01 13:01:55;;;;;;;10.93;0.90;;;;;;;;;;2347603;57;21553;-77
2022/09/01 13:04:27;;;;;;;20.30;2.70;;;;;;;;;;2347356;57;21023;-76
2022/09/01 13:06:55;;;;;;;7.87;1.15;;;;;;;;;;2346776;57;21080;-77
2022/09/01 13:09:22;;;;;;;4.47;0.90;;;;;;;;;;2389352;52;21057;-77
2022/09/01 13:11:50;;;;;;;3.37;0.73;;;;;;;;;;2357144;57;21057;-75
2022/09/01 13:14:17;;;;;;;10.73;1.12;;;;;;;;;;2362433;57;21124;-76
2022/09/01 13:16:45;;;;;;;4.43;0.90;;;;;;;;;;2361998;57;21060;-74
2022/09/01 13:19:12;;;;;;;1.00;0.90;;;;;;;;;;2362438;57;21045;-76
2022/09/01 13:21:39;;;;;;;5.43;0.70;;;;;;;;;;2362284;57;21025;-74
2022/09/01 13:26:45;;;;;;;2.97;0.80;;;;;;;;;;2333826;57;27814;-75
2022/09/01 13:29:12;;;;;;;0.75;0.50;;;;;;;;;;2346596;57;21046;-75
2022/09/01 13:31:39;;;;;;;0.90;0.65;;;;;;;;;;2351548;53;21089;-74
2022/09/01 13:34:06;;;;;;;1.65;0.68;;;;;;;;;;2429702;52;21102;-74
2022/09/01 13:36:33;;;;;;;1.75;0.80;;;;;;;;;;2373306;56;21036;-75
2022/09/01 13:39:00;;;;;;;1.50;0.70;;;;;;;;;;2373605;56;21063;-74
2022/09/01 13:41:27;;;;;;;92.93;11.10;;;;;;;;;;2373219;56;21553;-75
2022/09/01 13:43:55;;;;;;;3.12;1.65;;;;;;;;;;2374042;56;21105;-76
2022/09/01 13:46:22;;;;;;;3.45;1.05;;;;;;;;;;2373291;56;21672;-75
2022/09/01 13:48:49;;;;;;;0.88;0.52;;;;;;;;;;2374189;56;21600;-75
2022/09/01 13:51:25;;;;;;;4.78;0.70;;;;;;;;;;2377234;52;21062;-74
2022/09/01 13:53:52;;;;;;;1.65;0.75;;;;;;;;;;2373419;56;21058;-77
2022/09/01 13:56:19;;;;;;;0.68;0.50;;;;;;;;;;2372619;56;21055;-77
2022/09/01 13:58:47;;;;;;;1.67;0.50;;;;;;;;;;2373459;56;21031;-78
2022/09/01 14:01:15;;;;;;;0.60;0.50;;;;;;;;;;2373822;56;21031;-77
2022/09/01 14:03:43;;;;;;;0.65;0.43;;;;;;;;;;2374046;56;21047;-76
2022/09/01 14:06:10;;;;;;;0.60;0.50;;;;;;;;;;2373431;56;21039;-77
2022/09/01 14:08:37;;;;;;;0.98;0.50;;;;;;;;;;2373745;56;21086;-77
2022/09/01 14:11:04;;;;;;;0.47;0.40;;;;;;;;;;2373603;56;21066;-77
2022/09/01 14:13:31;;;;;;;2.67;0.50;;;;;;;;;;2503245;52;21081;-77
2022/09/01 14:15:58;;;;;;;0.62;0.57;;;;;;;;;;2372920;55;21051;-77
2022/09/01 14:18:30;;;;;;;0.98;0.50;;;;;;;;;;2373643;56;21201;-78
2022/09/01 14:21:00;;;;;;;0.88;0.60;;;;;;;;;;2373794;56;21107;-78
2022/09/01 14:23:27;;;;;;;0.82;0.50;;;;;;;;;;2416290;52;21122;-77
2022/09/01 14:25:54;;;;;;;6.95;0.85;;;;;;;;;;2372448;56;21178;-77
2022/09/01 14:28:22;;;;;;;0.95;0.50;;;;;;;;;;2374259;56;21593;-76
2022/09/01 14:30:50;;;;;;;0.62;0.40;;;;;;;;;;2373791;56;21699;-76
2022/09/01 14:33:17;;;;;;;0.98;0.50;;;;;;;;;;2373568;56;21110;-77
2022/09/01 14:35:47;;;;;;;0.40;0.40;;;;;;;;;;2373486;56;21046;-77
2022/09/01 14:38:14;;;;;;;0.82;0.40;;;;;;;;;;2372464;56;21097;-76
2022/09/01 14:40:42;;;;;;;1.42;0.75;;;;;;;;;;2372839;54;21126;-78
2022/09/01 14:43:12;;;;;;;1.10;0.70;;;;;;;;;;2372039;56;21178;-78
2022/09/01 14:45:43;;;;;;;0.85;0.52;;;;;;;;;;2372330;56;21042;-77
2022/09/01 14:48:10;;;;;;;0.62;0.50;;;;;;;;;;2373274;53;21051;-77
2022/09/01 14:50:40;;;;;;;0.55;0.43;;;;;;;;;;2372580;56;21394;-77
2022/09/01 14:53:07;;;;;;;0.75;0.70;;;;;;;;;;2372694;56;21046;-76
2022/09/01 14:55:34;;;;;;;0.50;0.45;;;;;;;;;;2396057;52;21063;-77
2022/09/01 14:58:01;;;;;;;1.27;0.52;;;;;;;;;;2372254;56;21154;-77
2022/09/01 15:00:30;;;;;;;0.82;0.70;;;;;;;;;;2373046;56;21043;-78